createdAt,value
2022-12-20T00:00:18.696Z,14.30
2022-12-20T00:05:42.377Z,22.30
2022-12-20T00:10:45.936Z,21.00
2022-12-20T00:15:48.422Z,18.50
2022-12-20T00:20:58.659Z,12.20
2022-12-20T00:26:05.942Z,15.50
2022-12-20T00:31:10.039Z,16.30
2022-12-20T00:36:12.708Z,20.50
2022-12-20T00:41:20.591Z,16.00
2022-12-20T00:46:24.616Z,11.50
2022-12-20T00:51:29.188Z,7.50
2022-12-20T00:56:31.653Z,11.90
2022-12-20T01:01:35.556Z,13.10
2022-12-20T01:06:38.178Z,15.00
2022-12-20T01:11:40.696Z,12.30
2022-12-20T01:16:47.275Z,15.20
2022-12-20T01:21:49.812Z,17.50
2022-12-20T01:26:52.344Z,11.50
2022-12-20T01:31:54.953Z,17.90
2022-12-20T01:36:57.491Z,17.40
2022-12-20T01:42:00.198Z,17.80
2022-12-20T01:47:03.612Z,17.50
2022-12-20T01:52:13.575Z,16.00
2022-12-20T01:57:24.781Z,19.40
2022-12-20T02:02:27.856Z,17.50
2022-12-20T02:07:34.194Z,14.90
2022-12-20T02:12:41.374Z,15.90
2022-12-20T02:17:51.981Z,19.60
2022-12-20T02:23:00.364Z,18.80
2022-12-20T02:28:06.772Z,18.30
2022-12-20T02:38:19.837Z,14.90
2022-12-20T02:43:27.151Z,16.30
2022-12-20T02:48:33.962Z,16.50
2022-12-20T02:53:38.156Z,13.10
2022-12-20T02:58:49.368Z,19.30
2022-12-20T03:03:52.855Z,21.60
2022-12-20T03:08:55.341Z,22.70
2022-12-20T03:13:57.911Z,18.50
2022-12-20T03:19:00.373Z,18.70
2022-12-20T03:24:02.845Z,17.80
2022-12-20T03:29:05.550Z,19.80
2022-12-20T03:34:08.019Z,30.20
2022-12-20T03:39:10.519Z,25.50
2022-12-20T03:44:13.092Z,20.60
2022-12-20T03:49:15.759Z,21.50
2022-12-20T03:54:18.744Z,28.80
2022-12-20T03:59:21.259Z,32.50
2022-12-20T04:04:23.831Z,25.00
2022-12-20T04:09:26.540Z,24.20
2022-12-20T04:14:29.047Z,32.20
2022-12-20T04:19:31.756Z,27.10
2022-12-20T04:24:34.275Z,33.30
2022-12-20T04:29:36.840Z,28.80
2022-12-20T04:34:39.328Z,25.00
2022-12-20T04:39:41.820Z,30.30
2022-12-20T04:44:44.404Z,30.00
2022-12-20T04:49:46.908Z,34.30
2022-12-20T04:54:49.458Z,29.20
2022-12-20T04:59:52.008Z,21.60
2022-12-20T05:04:54.501Z,25.00
2022-12-20T05:09:56.972Z,35.20
2022-12-20T05:14:59.471Z,34.90
2022-12-20T05:20:02.316Z,21.30
2022-12-20T05:25:08.104Z,26.70
2022-12-20T05:30:11.231Z,35.90
2022-12-20T05:35:14.724Z,34.10
2022-12-20T05:40:18.339Z,37.50
2022-12-20T05:45:21.731Z,37.70
2022-12-20T05:50:24.701Z,38.80
2022-12-20T05:55:27.192Z,30.60
2022-12-20T06:00:29.704Z,32.70
2022-12-20T06:05:32.231Z,37.50
2022-12-20T06:10:34.944Z,36.60
2022-12-20T06:15:38.180Z,37.80
2022-12-20T06:20:40.693Z,35.90
2022-12-20T06:25:43.901Z,30.10
2022-12-20T06:30:52.573Z,31.60
2022-12-20T06:35:55.058Z,33.80
2022-12-20T06:41:35.367Z,31.50
2022-12-20T06:46:37.931Z,35.00
2022-12-20T06:51:40.619Z,43.00
2022-12-20T06:56:43.183Z,41.40
2022-12-20T07:01:45.936Z,29.00
2022-12-20T07:06:48.559Z,34.30
2022-12-20T07:11:52.010Z,37.00
2022-12-20T07:16:54.966Z,36.30
2022-12-20T07:21:57.578Z,36.10
2022-12-20T07:27:00.806Z,42.20
2022-12-20T07:32:03.611Z,38.40
2022-12-20T07:37:06.166Z,34.00
2022-12-20T07:42:09.290Z,34.00
2022-12-20T07:47:12.004Z,37.10
2022-12-20T07:52:17.012Z,39.00
2022-12-20T07:57:24.212Z,22.50
2022-12-20T08:02:33.324Z,31.70
2022-12-20T08:07:38.316Z,25.90
2022-12-20T08:12:42.655Z,33.30
2022-12-20T08:17:45.239Z,33.80
2022-12-20T08:22:47.809Z,44.90
2022-12-20T08:27:50.569Z,36.80
2022-12-20T08:32:53.029Z,24.80
2022-12-20T08:37:56.401Z,26.60
2022-12-20T08:43:00.487Z,32.50
2022-12-20T08:48:04.903Z,26.90
2022-12-20T08:53:07.416Z,30.80
2022-12-20T08:58:09.906Z,27.60
2022-12-20T09:03:14.291Z,31.70
2022-12-20T09:08:16.845Z,30.40
2022-12-20T09:13:19.553Z,30.50
2022-12-20T09:18:22.049Z,33.30
2022-12-20T09:23:24.929Z,33.00
2022-12-20T09:28:27.588Z,30.90
2022-12-20T09:33:34.434Z,33.00
2022-12-20T09:38:37.068Z,38.50
2022-12-20T09:43:41.626Z,34.20
2022-12-20T09:48:45.633Z,36.20
2022-12-20T09:53:52.369Z,34.60
2022-12-20T09:58:58.781Z,28.70
2022-12-20T10:04:12.624Z,29.90
2022-12-20T10:09:32.024Z,33.80
2022-12-20T10:15:15.989Z,33.60
2022-12-20T10:20:27.319Z,30.90
2022-12-20T10:25:36.693Z,33.50
2022-12-20T10:30:42.313Z,29.30
2022-12-20T10:35:45.925Z,34.10
2022-12-20T10:46:34.050Z,19.80
2022-12-20T10:51:36.729Z,33.20
2022-12-20T10:56:39.375Z,29.90
2022-12-20T11:01:47.166Z,33.90
2022-12-20T11:06:51.756Z,31.70
2022-12-20T11:11:57.684Z,31.00
2022-12-20T11:17:07.746Z,34.20
2022-12-20T11:22:14.279Z,35.10
2022-12-20T11:27:27.329Z,32.20
2022-12-20T11:32:52.496Z,32.90
2022-12-20T11:38:02.638Z,35.40
2022-12-20T11:43:25.288Z,34.30
2022-12-20T11:48:38.966Z,35.30
2022-12-20T11:53:48.186Z,32.80
2022-12-20T11:59:00.219Z,22.40
2022-12-20T12:04:04.447Z,37.50
2022-12-20T12:09:12.121Z,39.30
2022-12-20T12:14:27.165Z,27.70
2022-12-20T12:19:31.078Z,35.70
2022-12-20T12:24:39.140Z,32.10
2022-12-20T12:29:41.844Z,29.80
2022-12-20T12:34:48.597Z,41.60
2022-12-20T12:39:56.106Z,32.80
2022-12-20T12:45:03.920Z,33.00
2022-12-20T12:50:21.103Z,37.70
2022-12-20T12:55:29.558Z,22.90
2022-12-20T13:00:55.338Z,36.40
2022-12-20T13:05:58.021Z,35.20
2022-12-20T13:11:01.774Z,32.00
2022-12-20T13:16:09.706Z,35.60
2022-12-20T13:21:17.832Z,23.60
2022-12-20T13:26:49.728Z,35.20
2022-12-20T13:31:54.583Z,37.00
2022-12-20T13:36:59.576Z,35.40
2022-12-20T13:42:16.131Z,42.30
2022-12-20T13:52:28.550Z,38.30
2022-12-20T13:57:41.238Z,43.00
2022-12-20T14:02:44.996Z,41.50
2022-12-20T14:07:55.019Z,36.30
2022-12-20T14:12:58.179Z,41.00
2022-12-20T14:18:05.912Z,40.00
2022-12-20T14:23:16.660Z,41.50
2022-12-20T14:28:30.363Z,36.90
2022-12-20T14:33:32.948Z,48.20
2022-12-20T14:38:35.658Z,37.10
2022-12-20T14:43:38.303Z,39.90
2022-12-20T14:48:41.056Z,43.00
2022-12-20T14:53:45.588Z,42.30
2022-12-20T14:59:13.629Z,36.00
2022-12-20T15:04:36.689Z,42.20
2022-12-20T15:09:39.907Z,45.60
2022-12-20T15:14:42.797Z,49.10
2022-12-20T15:19:45.460Z,47.40
2022-12-20T15:24:48.102Z,43.20
2022-12-20T15:29:50.737Z,24.20
2022-12-20T15:34:53.517Z,48.20
2022-12-20T15:39:56.166Z,46.30
2022-12-20T15:44:58.918Z,16.60
2022-12-20T15:50:01.581Z,44.90
2022-12-20T15:55:04.504Z,35.70
2022-12-20T16:00:07.997Z,44.70
2022-12-20T16:05:13.887Z,33.00
2022-12-20T16:10:17.219Z,50.40
2022-12-20T16:15:22.008Z,45.90
2022-12-20T16:20:24.964Z,32.70
2022-12-20T16:25:32.980Z,48.10
2022-12-20T16:30:35.867Z,46.10
2022-12-20T16:35:38.544Z,52.80
2022-12-20T16:40:41.323Z,50.20
2022-12-20T16:45:43.964Z,58.90
2022-12-20T16:50:46.750Z,52.60
2022-12-20T16:55:49.586Z,54.30
2022-12-20T17:00:52.286Z,53.00
2022-12-20T17:05:57.151Z,44.50
2022-12-20T17:10:59.754Z,49.90
2022-12-20T17:16:02.528Z,50.10
2022-12-20T17:21:34.371Z,48.50
2022-12-20T17:26:37.501Z,52.60
2022-12-20T17:31:43.583Z,53.60
2022-12-20T17:36:47.713Z,40.90
2022-12-20T17:41:51.897Z,36.80
2022-12-20T17:46:56.191Z,51.20
2022-12-20T17:51:58.795Z,47.70
2022-12-20T17:57:01.446Z,50.30
2022-12-20T18:02:18.580Z,47.50
2022-12-20T18:07:21.374Z,49.50
2022-12-20T18:12:24.239Z,47.70
2022-12-20T18:17:27.040Z,55.80
2022-12-20T18:22:32.097Z,41.80
2022-12-20T18:27:39.941Z,56.80
2022-12-20T18:32:42.638Z,54.10
2022-12-20T18:37:45.256Z,47.20
2022-12-20T18:42:47.876Z,47.00
2022-12-20T18:47:50.475Z,54.10
2022-12-20T18:52:57.869Z,55.70
2022-12-20T18:58:03.880Z,48.80
2022-12-20T19:03:06.679Z,37.40
2022-12-20T19:08:09.431Z,49.40
2022-12-20T19:13:12.172Z,58.90
2022-12-20T19:18:15.932Z,50.00
2022-12-20T19:23:20.637Z,52.50
2022-12-20T19:28:23.897Z,49.80
2022-12-20T19:33:26.733Z,47.40
2022-12-20T19:38:29.358Z,49.10
2022-12-20T19:43:32.009Z,47.10
2022-12-20T19:48:35.478Z,47.40
2022-12-20T19:53:40.723Z,50.00
2022-12-20T19:58:44.355Z,52.40
2022-12-20T20:03:47.182Z,54.10
2022-12-20T20:08:50.017Z,51.40
2022-12-20T20:13:53.003Z,51.30
2022-12-20T20:18:55.733Z,42.50
2022-12-20T20:23:58.451Z,50.20
2022-12-20T20:29:02.107Z,26.50
2022-12-20T20:34:04.813Z,43.80
2022-12-20T20:39:07.770Z,47.00
2022-12-20T20:44:12.111Z,57.20
2022-12-20T20:49:14.829Z,50.10
2022-12-20T20:54:17.479Z,14.50
2022-12-20T20:59:22.624Z,41.90
2022-12-20T21:04:25.227Z,42.20
2022-12-20T21:09:28.656Z,46.40
2022-12-20T21:15:02.281Z,44.60
2022-12-20T21:19:54.227Z,44.20
2022-12-20T21:24:57.619Z,43.70
2022-12-20T21:30:00.282Z,41.70
2022-12-20T21:35:03.075Z,42.70
2022-12-20T21:40:07.473Z,42.40
2022-12-20T21:45:11.871Z,41.30
2022-12-20T21:50:14.599Z,45.00
2022-12-20T21:55:17.219Z,47.70
2022-12-20T22:00:21.065Z,36.70
2022-12-20T22:05:23.661Z,22.40
2022-12-20T22:10:26.301Z,43.70
2022-12-20T22:15:28.909Z,34.80
2022-12-20T22:20:31.917Z,37.80
2022-12-20T22:25:38.371Z,36.00
2022-12-20T22:30:42.293Z,41.60
2022-12-20T22:35:44.969Z,44.70
2022-12-20T22:40:47.558Z,39.20
2022-12-20T22:45:57.160Z,38.40
2022-12-20T22:51:00.498Z,39.20
2022-12-20T22:56:04.935Z,44.20
2022-12-20T23:01:10.739Z,42.10
2022-12-20T23:06:16.682Z,37.90
2022-12-20T23:11:25.515Z,39.50
2022-12-20T23:16:28.561Z,47.20
2022-12-20T23:21:34.356Z,36.30
2022-12-20T23:26:38.636Z,35.40
2022-12-20T23:31:41.617Z,36.30
2022-12-20T23:36:44.381Z,40.50
2022-12-20T23:41:47.016Z,36.30
2022-12-20T23:46:49.702Z,42.90
2022-12-20T23:51:52.444Z,34.60
2022-12-20T23:56:55.061Z,37.40
